createdAt,value
2018-05-07T00:00:00.971Z,4.57
2018-05-07T00:02:29.132Z,3.70
2018-05-07T00:04:57.301Z,3.80
2018-05-07T00:07:25.521Z,4.57
2018-05-07T00:09:53.692Z,3.67
2018-05-07T00:12:21.881Z,4.53
2018-05-07T00:14:50.820Z,4.03
2018-05-07T00:17:18.992Z,4.00
2018-05-07T00:19:47.157Z,4.20
2018-05-07T00:22:15.321Z,4.53
2018-05-07T00:24:43.485Z,4.10
2018-05-07T00:27:12.429Z,3.80
2018-05-07T00:29:40.603Z,3.67
2018-05-07T00:32:08.782Z,3.27
2018-05-07T00:34:36.968Z,3.53
2018-05-07T00:37:05.169Z,4.77
2018-05-07T00:39:34.108Z,3.90
2018-05-07T00:42:02.308Z,4.30
2018-05-07T00:44:30.501Z,3.60
2018-05-07T00:46:59.486Z,3.70
2018-05-07T00:49:27.657Z,4.17
2018-05-07T00:51:55.856Z,3.80
2018-05-07T00:54:24.794Z,3.30
2018-05-07T00:56:52.971Z,4.50
2018-05-07T00:59:21.140Z,8.10
2018-05-07T01:01:49.308Z,4.67
2018-05-07T01:04:17.469Z,4.33
2018-05-07T01:06:45.658Z,3.60
2018-05-07T01:09:13.833Z,4.10
2018-05-07T01:11:42.006Z,3.90
2018-05-07T01:14:10.179Z,4.30
2018-05-07T01:16:38.370Z,4.50
2018-05-07T01:19:06.537Z,4.10
2018-05-07T01:21:34.710Z,3.70
2018-05-07T01:24:02.878Z,4.13
2018-05-07T01:26:31.089Z,4.27
2018-05-07T01:28:59.255Z,3.70
2018-05-07T01:31:27.416Z,3.87
2018-05-07T01:33:55.593Z,4.20
2018-05-07T01:36:23.761Z,4.30
2018-05-07T01:38:51.940Z,4.23
2018-05-07T01:41:20.116Z,4.50
2018-05-07T01:43:48.283Z,5.70
2018-05-07T01:46:16.478Z,4.60
2018-05-07T01:48:44.665Z,4.17
2018-05-07T01:51:12.838Z,4.20
2018-05-07T01:53:41.005Z,4.00
2018-05-07T01:56:09.176Z,4.33
2018-05-07T01:58:37.369Z,4.30
2018-05-07T02:01:05.548Z,4.10
2018-05-07T02:03:33.769Z,4.30
2018-05-07T02:06:01.961Z,4.33
2018-05-07T02:08:30.133Z,4.33
2018-05-07T02:10:58.313Z,4.30
2018-05-07T02:13:26.482Z,4.40
2018-05-07T02:15:54.661Z,4.63
2018-05-07T02:18:22.834Z,4.63
2018-05-07T02:20:51.005Z,4.13
2018-05-07T02:23:19.182Z,4.53
2018-05-07T02:25:47.347Z,4.80
2018-05-07T02:28:15.525Z,4.33
2018-05-07T02:30:43.696Z,4.63
2018-05-07T02:33:11.878Z,4.97
2018-05-07T02:35:40.090Z,4.57
2018-05-07T02:38:09.038Z,4.80
2018-05-07T02:40:37.209Z,4.70
2018-05-07T02:43:05.403Z,5.10
2018-05-07T02:45:33.578Z,4.80
2018-05-07T02:48:01.744Z,5.27
2018-05-07T02:50:29.988Z,4.93
2018-05-07T02:52:58.102Z,4.63
2018-05-07T02:55:26.277Z,4.23
2018-05-07T02:57:54.457Z,4.97
2018-05-07T03:00:22.653Z,6.37
2018-05-07T03:02:50.825Z,5.00
2018-05-07T03:05:19.781Z,6.20
2018-05-07T03:07:47.998Z,6.70
2018-05-07T03:10:16.953Z,6.60
2018-05-07T03:12:45.137Z,5.73
2018-05-07T03:15:13.338Z,5.60
2018-05-07T03:17:42.289Z,6.10
2018-05-07T03:20:10.468Z,6.20
2018-05-07T03:22:38.645Z,6.10
2018-05-07T03:25:06.826Z,6.03
2018-05-07T03:27:35.003Z,7.20
2018-05-07T03:30:03.173Z,6.60
2018-05-07T03:32:31.372Z,5.57
2018-05-07T03:35:00.300Z,5.30
2018-05-07T03:37:28.473Z,6.13
2018-05-07T03:39:56.649Z,5.33
2018-05-07T03:42:24.816Z,5.30
2018-05-07T03:44:53.753Z,5.30
2018-05-07T03:47:21.960Z,4.77
2018-05-07T03:49:50.136Z,5.03
2018-05-07T03:52:18.309Z,4.53
2018-05-07T03:54:46.484Z,4.40
2018-05-07T03:57:15.533Z,4.97
2018-05-07T03:59:43.729Z,4.40
2018-05-07T04:02:11.891Z,4.50
2018-05-07T04:04:40.147Z,4.87
2018-05-07T04:07:09.177Z,4.90
2018-05-07T04:09:38.109Z,6.60
2018-05-07T04:12:07.049Z,5.57
2018-05-07T04:14:35.222Z,6.40
2018-05-07T04:17:21.117Z,7.30
2018-05-07T04:20:07.103Z,7.93
2018-05-07T04:22:53.197Z,7.00
2018-05-07T04:25:21.381Z,6.20
2018-05-07T04:27:49.544Z,6.23
2018-05-07T04:30:17.721Z,16.37
2018-05-07T04:32:45.903Z,6.80
2018-05-07T04:35:14.068Z,7.60
2018-05-07T04:37:42.236Z,7.10
2018-05-07T04:40:10.408Z,7.10
2018-05-07T04:42:38.577Z,7.20
2018-05-07T04:45:06.746Z,6.80
2018-05-07T04:47:34.913Z,5.60
2018-05-07T04:50:03.078Z,5.80
2018-05-07T04:52:32.024Z,6.07
2018-05-07T04:55:00.250Z,6.33
2018-05-07T04:57:28.390Z,5.07
2018-05-07T04:59:56.556Z,4.60
2018-05-07T05:02:24.720Z,5.37
2018-05-07T05:04:52.892Z,4.77
2018-05-07T05:07:21.057Z,4.63
2018-05-07T05:09:49.233Z,4.60
2018-05-07T05:12:17.429Z,4.90
2018-05-07T05:14:45.625Z,5.13
2018-05-07T05:17:14.561Z,4.67
2018-05-07T05:19:42.787Z,5.23
2018-05-07T05:22:10.957Z,5.30
2018-05-07T05:24:39.125Z,5.70
2018-05-07T05:27:07.292Z,4.93
2018-05-07T05:29:35.454Z,5.33
2018-05-07T05:32:03.619Z,5.40
2018-05-07T05:34:31.816Z,4.93
2018-05-07T05:37:00.041Z,4.87
2018-05-07T05:39:31.439Z,5.07
2018-05-07T05:42:05.700Z,4.80
2018-05-07T05:44:36.622Z,5.20
2018-05-07T05:47:05.558Z,4.60
2018-05-07T05:49:35.044Z,5.27
2018-05-07T05:52:03.238Z,4.60
2018-05-07T05:54:31.412Z,4.40
2018-05-07T05:56:59.588Z,5.00
2018-05-07T05:59:27.801Z,4.60
2018-05-07T06:01:56.937Z,4.70
2018-05-07T06:04:25.115Z,4.53
2018-05-07T06:06:53.288Z,4.73
2018-05-07T06:09:21.486Z,5.10
2018-05-07T06:11:49.665Z,6.50
2018-05-07T06:14:17.837Z,7.67
2018-05-07T06:16:46.007Z,6.43
2018-05-07T06:19:14.286Z,5.77
2018-05-07T06:21:42.464Z,4.43
2018-05-07T06:24:10.631Z,4.70
2018-05-07T06:26:38.798Z,4.70
2018-05-07T06:29:06.988Z,5.47
2018-05-07T06:31:35.155Z,4.90
2018-05-07T06:34:03.677Z,5.13
2018-05-07T06:36:31.853Z,4.20
2018-05-07T06:39:00.113Z,3.97
2018-05-07T06:41:28.366Z,4.10
2018-05-07T06:43:56.555Z,4.40
2018-05-07T06:46:25.142Z,4.00
2018-05-07T06:48:53.386Z,4.43
2018-05-07T06:51:21.598Z,4.20
2018-05-07T06:53:49.793Z,6.73
2018-05-07T06:56:18.183Z,4.97
2018-05-07T06:58:47.168Z,3.90
2018-05-07T07:01:15.510Z,4.63
2018-05-07T07:03:43.796Z,4.03
2018-05-07T07:06:12.072Z,4.47
2018-05-07T07:08:40.423Z,4.37
2018-05-07T07:11:08.590Z,5.00
2018-05-07T07:13:36.853Z,4.03
2018-05-07T07:16:05.824Z,4.60
2018-05-07T07:18:34.032Z,4.20
2018-05-07T07:21:02.309Z,4.10
2018-05-07T07:23:30.523Z,3.67
2018-05-07T07:25:58.690Z,4.20
2018-05-07T07:28:26.909Z,4.60
2018-05-07T07:30:55.961Z,3.80
2018-05-07T07:33:25.017Z,6.37
2018-05-07T07:35:54.041Z,4.43
2018-05-07T07:38:22.241Z,4.50
2018-05-07T07:40:50.453Z,4.03
2018-05-07T07:43:19.448Z,4.60
2018-05-07T07:45:48.384Z,4.10
2018-05-07T07:48:16.730Z,5.27
2018-05-07T07:50:44.957Z,5.03
2018-05-07T07:53:13.334Z,5.10
2018-05-07T07:55:41.746Z,5.50
2018-05-07T07:58:10.732Z,5.30
2018-05-07T08:00:39.129Z,4.97
2018-05-07T08:03:08.118Z,5.37
2018-05-07T08:05:37.321Z,5.70
2018-05-07T08:08:06.347Z,4.67
2018-05-07T08:10:34.645Z,4.37
2018-05-07T08:13:02.870Z,5.03
2018-05-07T08:15:32.712Z,5.70
2018-05-07T08:18:00.928Z,4.97
2018-05-07T08:20:29.387Z,4.47
2018-05-07T08:22:57.739Z,4.40
2018-05-07T08:25:27.244Z,4.23
2018-05-07T08:27:55.521Z,3.90
2018-05-07T08:30:23.902Z,4.23
2018-05-07T08:32:52.065Z,4.40
2018-05-07T08:35:20.485Z,4.40
2018-05-07T08:37:49.869Z,4.83
2018-05-07T08:40:18.188Z,4.87
2018-05-07T08:42:46.409Z,4.53
2018-05-07T08:45:14.682Z,6.07
2018-05-07T08:47:43.015Z,5.87
2018-05-07T08:50:11.289Z,6.33
2018-05-07T08:52:39.606Z,4.80
2018-05-07T08:55:08.537Z,5.40
2018-05-07T08:57:36.841Z,5.67
2018-05-07T09:00:05.141Z,5.00
2018-05-07T09:02:34.123Z,4.90
2018-05-07T09:05:02.302Z,4.60
2018-05-07T09:07:30.494Z,4.90
2018-05-07T09:09:59.490Z,4.80
2018-05-07T09:12:28.565Z,4.70
2018-05-07T09:14:57.557Z,4.87
2018-05-07T09:17:26.706Z,4.60
2018-05-07T09:19:55.429Z,5.20
2018-05-07T09:22:23.605Z,5.00
2018-05-07T09:24:51.907Z,5.73
2018-05-07T09:27:20.169Z,4.90
2018-05-07T09:29:48.348Z,5.10
2018-05-07T09:32:17.290Z,5.00
2018-05-07T09:34:45.511Z,5.87
2018-05-07T09:37:14.518Z,5.17
2018-05-07T09:39:43.552Z,4.60
2018-05-07T09:42:11.886Z,5.63
2018-05-07T09:44:40.883Z,5.77
2018-05-07T09:47:09.929Z,4.73
2018-05-07T09:49:38.145Z,5.17
2018-05-07T09:52:06.469Z,4.90
2018-05-07T09:54:34.752Z,5.70
2018-05-07T09:57:02.961Z,6.20
2018-05-07T09:59:31.222Z,4.00
2018-05-07T10:01:59.443Z,4.47
2018-05-07T10:04:28.432Z,4.63
2018-05-07T10:06:57.368Z,4.30
2018-05-07T10:09:25.585Z,4.70
2018-05-07T10:11:53.819Z,4.20
2018-05-07T10:14:22.038Z,4.87
2018-05-07T10:16:50.304Z,4.43
2018-05-07T10:19:18.571Z,4.00
2018-05-07T10:21:47.639Z,4.90
2018-05-07T10:24:15.892Z,4.97
2018-05-07T10:26:46.113Z,4.77
2018-05-07T10:29:16.169Z,4.67
2018-05-07T10:31:45.239Z,4.50
2018-05-07T10:34:13.559Z,4.80
2018-05-07T10:36:41.777Z,4.67
2018-05-07T10:39:10.840Z,4.63
2018-05-07T10:41:39.099Z,5.03
2018-05-07T10:44:07.359Z,4.93
2018-05-07T10:46:35.821Z,5.07
2018-05-07T10:49:04.059Z,4.40
2018-05-07T10:51:32.249Z,5.07
2018-05-07T10:54:01.337Z,4.40
2018-05-07T10:56:30.331Z,4.10
2018-05-07T10:58:59.735Z,4.50
2018-05-07T11:01:29.545Z,4.90
2018-05-07T11:03:58.574Z,4.77
2018-05-07T11:06:26.761Z,4.23
2018-05-07T11:08:55.579Z,4.33
2018-05-07T11:11:23.867Z,4.97
2018-05-07T11:13:52.075Z,4.80
2018-05-07T11:16:20.248Z,4.23
2018-05-07T11:18:48.495Z,5.10
2018-05-07T11:21:16.760Z,4.80
2018-05-07T11:23:44.977Z,4.23
2018-05-07T11:26:14.043Z,4.20
2018-05-07T11:28:42.381Z,4.93
2018-05-07T11:31:10.615Z,4.53
2018-05-07T11:33:39.643Z,5.27
2018-05-07T11:36:07.941Z,4.47
2018-05-07T11:38:36.112Z,4.30
2018-05-07T11:41:04.326Z,4.27
2018-05-07T11:43:33.332Z,3.90
2018-05-07T11:46:02.342Z,4.37
2018-05-07T11:48:30.645Z,4.47
2018-05-07T11:50:58.827Z,4.27
2018-05-07T11:53:27.229Z,5.10
2018-05-07T11:55:55.506Z,4.10
2018-05-07T11:58:23.757Z,4.93
2018-05-07T12:00:52.012Z,4.47
2018-05-07T12:03:20.276Z,4.53
2018-05-07T12:05:48.525Z,4.43
2018-05-07T12:08:16.704Z,4.00
2018-05-07T12:10:45.644Z,5.10
2018-05-07T12:13:13.821Z,5.20
2018-05-07T12:15:42.088Z,5.10
2018-05-07T12:18:10.292Z,4.90
2018-05-07T12:20:38.521Z,4.13
2018-05-07T12:23:07.154Z,4.80
2018-05-07T12:25:35.453Z,4.60
2018-05-07T12:28:03.649Z,4.70
2018-05-07T12:30:33.543Z,4.57
2018-05-07T12:33:02.569Z,5.40
2018-05-07T12:35:30.837Z,5.10
2018-05-07T12:37:59.896Z,5.30
2018-05-07T12:40:28.115Z,4.70
2018-05-07T12:42:56.388Z,4.97
2018-05-07T12:45:25.436Z,5.30
2018-05-07T12:47:53.738Z,5.30
2018-05-07T12:50:22.937Z,4.80
2018-05-07T12:52:51.148Z,4.63
2018-05-07T12:55:20.885Z,4.93
2018-05-07T12:57:49.117Z,5.40
2018-05-07T13:00:18.147Z,4.93
2018-05-07T13:02:47.274Z,4.93
2018-05-07T13:05:15.495Z,4.93
2018-05-07T13:07:43.667Z,5.70
2018-05-07T13:10:13.591Z,4.50
2018-05-07T13:12:41.815Z,5.00
2018-05-07T13:15:11.602Z,4.73
2018-05-07T13:17:39.814Z,4.70
2018-05-07T13:20:08.045Z,5.60
2018-05-07T13:22:36.329Z,4.90
2018-05-07T13:25:04.515Z,5.13
2018-05-07T13:27:33.541Z,4.70
2018-05-07T13:30:02.674Z,4.90
2018-05-07T13:32:30.866Z,5.53
2018-05-07T13:34:59.065Z,4.10
2018-05-07T13:37:27.290Z,4.30
2018-05-07T13:39:55.547Z,4.70
2018-05-07T13:42:24.608Z,4.55
2018-05-07T13:44:52.817Z,4.60
2018-05-07T13:47:21.862Z,4.43
2018-05-07T13:49:50.143Z,4.43
2018-05-07T13:52:19.175Z,4.60
2018-05-07T13:54:47.360Z,4.80
2018-05-07T13:57:16.910Z,4.63
2018-05-07T13:59:45.141Z,4.80
2018-05-07T14:02:14.147Z,3.90
2018-05-07T14:04:43.099Z,4.90
2018-05-07T14:07:11.322Z,4.80
2018-05-07T14:09:39.618Z,5.30
2018-05-07T14:12:07.873Z,4.40
2018-05-07T14:14:36.889Z,4.50
2018-05-07T14:17:05.156Z,5.00
2018-05-07T14:19:33.378Z,5.30
2018-05-07T14:22:01.549Z,9.90
2018-05-07T14:27:52.151Z,4.57
2018-05-07T14:30:20.370Z,4.30
2018-05-07T14:32:50.434Z,4.80
2018-05-07T14:35:28.573Z,4.40
2018-05-07T14:37:56.984Z,4.80
2018-05-07T14:40:27.065Z,4.77
2018-05-07T14:42:55.701Z,5.07
2018-05-07T14:45:29.397Z,5.30
2018-05-07T14:47:58.341Z,4.97
2018-05-07T14:50:27.084Z,4.30
2018-05-07T14:52:56.907Z,5.13
2018-05-07T14:55:25.182Z,5.40
2018-05-07T14:57:53.361Z,5.10
2018-05-07T15:00:21.572Z,6.70
2018-05-07T15:02:49.940Z,5.37
2018-05-07T15:05:18.122Z,5.20
2018-05-07T15:07:46.348Z,4.87
2018-05-07T15:10:16.083Z,5.47
2018-05-07T15:12:45.370Z,5.03
2018-05-07T15:15:15.182Z,5.00
2018-05-07T15:17:46.513Z,5.07
2018-05-07T15:20:17.190Z,5.20
2018-05-07T15:22:46.647Z,5.40
2018-05-07T15:25:21.240Z,5.50
2018-05-07T15:27:50.345Z,4.83
2018-05-07T15:30:18.634Z,5.07
2018-05-07T15:32:46.887Z,5.30
2018-05-07T15:35:19.059Z,4.93
2018-05-07T15:37:47.358Z,4.97
2018-05-07T15:40:15.525Z,4.87
2018-05-07T15:42:45.488Z,4.33
2018-05-07T15:45:13.775Z,4.40
2018-05-07T15:47:43.332Z,5.00
2018-05-07T15:50:11.561Z,10.37
2018-05-07T15:52:39.741Z,10.10
2018-05-07T15:55:07.969Z,19.27
2018-05-07T15:57:37.032Z,13.10
2018-05-07T16:00:05.221Z,4.97
2018-05-07T16:02:33.487Z,4.27
2018-05-07T16:05:02.378Z,4.87
2018-05-07T16:07:30.560Z,5.87
2018-05-07T16:09:58.750Z,5.07
2018-05-07T16:12:26.916Z,4.90
2018-05-07T16:14:55.153Z,4.73
2018-05-07T16:17:23.306Z,5.30
2018-05-07T16:19:51.477Z,4.60
2018-05-07T16:22:19.788Z,4.50
2018-05-07T16:24:47.847Z,5.90
2018-05-07T16:27:16.022Z,5.10
2018-05-07T16:29:44.194Z,4.63
2018-05-07T16:32:12.360Z,4.60
2018-05-07T16:34:40.520Z,5.83
2018-05-07T16:37:08.697Z,5.10
2018-05-07T16:39:36.867Z,5.83
2018-05-07T16:42:05.838Z,5.50
2018-05-07T16:44:34.801Z,4.90
2018-05-07T16:47:02.975Z,4.87
2018-05-07T16:49:31.917Z,4.80
2018-05-07T16:52:00.852Z,5.13
2018-05-07T16:54:29.028Z,4.57
2018-05-07T16:56:57.197Z,5.40
2018-05-07T16:59:25.447Z,5.90
2018-05-07T17:01:54.373Z,5.30
2018-05-07T17:04:22.544Z,6.47
2018-05-07T17:06:50.719Z,5.27
2018-05-07T17:09:18.909Z,10.63
2018-05-07T17:11:47.083Z,6.83
2018-05-07T17:14:15.324Z,7.83
2018-05-07T17:16:43.481Z,7.37
2018-05-07T17:19:11.657Z,6.50
2018-05-07T17:21:40.601Z,5.53
2018-05-07T17:24:08.848Z,5.63
2018-05-07T17:26:36.974Z,5.60
2018-05-07T17:29:05.932Z,5.70
2018-05-07T17:31:34.098Z,4.63
2018-05-07T17:34:02.328Z,5.90
2018-05-07T17:36:30.455Z,6.17
2018-05-07T17:38:58.639Z,6.50
2018-05-07T17:41:26.857Z,7.30
2018-05-07T17:43:55.047Z,6.70
2018-05-07T17:46:41.074Z,5.80
2018-05-07T17:49:09.254Z,6.07
2018-05-07T17:51:37.433Z,6.00
2018-05-07T17:54:05.605Z,5.13
2018-05-07T17:56:33.775Z,5.73
2018-05-07T17:59:01.984Z,4.93
2018-05-07T18:01:30.940Z,5.60
2018-05-07T18:04:00.029Z,6.17
2018-05-07T18:06:28.197Z,6.60
2018-05-07T18:08:56.385Z,6.30
2018-05-07T18:11:24.554Z,7.63
2018-05-07T18:13:52.933Z,7.13
2018-05-07T18:16:21.100Z,6.83
2018-05-07T18:18:49.301Z,8.10
2018-05-07T18:21:17.490Z,8.00
2018-05-07T18:23:45.665Z,6.87
2018-05-07T18:26:13.854Z,7.20
2018-05-07T18:28:42.805Z,5.83
2018-05-07T18:31:11.044Z,5.83
2018-05-07T18:33:39.193Z,6.47
2018-05-07T18:36:08.129Z,7.80
2018-05-07T18:38:36.309Z,7.10
2018-05-07T18:41:04.481Z,6.60
2018-05-07T18:43:32.697Z,6.93
2018-05-07T18:46:00.873Z,6.97
2018-05-07T18:48:29.053Z,9.93
2018-05-07T18:50:57.221Z,10.90
2018-05-07T18:53:25.397Z,8.70
2018-05-07T18:55:53.602Z,6.33
2018-05-07T18:58:21.773Z,6.20
2018-05-07T19:00:50.742Z,6.27
2018-05-07T19:03:18.913Z,6.37
2018-05-07T19:05:47.080Z,6.67
2018-05-07T19:08:15.257Z,6.33
2018-05-07T19:10:43.440Z,6.43
2018-05-07T19:13:11.617Z,5.90
2018-05-07T19:15:40.582Z,5.63
2018-05-07T19:18:08.756Z,5.37
2018-05-07T19:20:36.921Z,6.10
2018-05-07T19:23:05.101Z,5.70
2018-05-07T19:25:33.347Z,5.90
2018-05-07T19:28:01.522Z,7.00
2018-05-07T19:30:29.703Z,5.53
2018-05-07T19:32:58.032Z,6.03
2018-05-07T19:35:26.214Z,5.10
2018-05-07T19:37:55.169Z,6.13
2018-05-07T19:40:24.117Z,5.50
2018-05-07T19:42:53.089Z,6.13
2018-05-07T19:45:22.050Z,5.73
2018-05-07T19:47:50.262Z,6.13
2018-05-07T19:50:18.454Z,6.10
2018-05-07T19:52:47.404Z,6.20
2018-05-07T19:55:15.623Z,6.70
2018-05-07T19:57:44.567Z,5.63
2018-05-07T20:00:12.768Z,12.53
2018-05-07T20:02:41.728Z,13.80
2018-05-07T20:05:09.906Z,9.87
2018-05-07T20:07:38.113Z,13.77
2018-05-07T20:10:07.075Z,9.20
2018-05-07T20:12:35.325Z,7.80
2018-05-07T20:15:03.446Z,7.00
2018-05-07T20:17:31.616Z,6.50
2018-05-07T20:19:59.824Z,6.60
2018-05-07T20:22:28.785Z,19.60
2018-05-07T20:24:56.973Z,15.33
2018-05-07T20:27:25.929Z,13.63
2018-05-07T20:29:54.115Z,8.00
2018-05-07T20:32:22.306Z,10.50
2018-05-07T20:34:50.516Z,8.00
2018-05-07T20:37:18.687Z,5.37
2018-05-07T20:39:46.870Z,7.07
2018-05-07T20:42:15.037Z,6.73
2018-05-07T20:44:43.214Z,7.00
2018-05-07T20:47:11.468Z,6.67
2018-05-07T20:49:39.576Z,5.67
2018-05-07T20:52:07.755Z,6.63
2018-05-07T20:54:35.929Z,6.10
2018-05-07T20:57:04.104Z,6.50
2018-05-07T20:59:32.297Z,6.40
2018-05-07T21:02:00.510Z,6.40
2018-05-07T21:04:29.465Z,7.40
2018-05-07T21:06:57.642Z,7.10
2018-05-07T21:09:25.828Z,7.07
2018-05-07T21:11:53.997Z,6.70
2018-05-07T21:14:22.206Z,6.00
2018-05-07T21:16:51.142Z,6.77
2018-05-07T21:19:19.317Z,6.77
2018-05-07T21:21:47.499Z,7.20
2018-05-07T21:24:15.705Z,8.40
2018-05-07T21:26:43.882Z,7.37
2018-05-07T21:29:12.067Z,6.83
2018-05-07T21:31:41.006Z,6.80
2018-05-07T21:34:09.185Z,6.90
2018-05-07T21:36:37.358Z,7.53
2018-05-07T21:39:06.431Z,6.50
2018-05-07T21:41:34.606Z,7.33
2018-05-07T21:44:02.781Z,6.87
2018-05-07T21:46:30.978Z,7.00
2018-05-07T21:48:59.143Z,7.67
2018-05-07T21:51:27.318Z,10.40
2018-05-07T21:53:55.491Z,9.10
2018-05-07T21:56:23.658Z,6.63
2018-05-07T21:58:51.832Z,8.07
2018-05-07T22:01:20.046Z,8.43
2018-05-07T22:03:48.224Z,7.10
2018-05-07T22:06:16.389Z,8.70
2018-05-07T22:08:44.552Z,8.43
2018-05-07T22:11:12.730Z,8.23
2018-05-07T22:13:40.919Z,8.00
2018-05-07T22:16:09.094Z,7.70
2018-05-07T22:18:37.258Z,7.40
2018-05-07T22:21:05.441Z,7.57
2018-05-07T22:23:33.611Z,7.03
2018-05-07T22:26:01.782Z,6.83
2018-05-07T22:28:29.960Z,7.90
2018-05-07T22:30:58.161Z,7.67
2018-05-07T22:33:26.341Z,8.30
2018-05-07T22:35:55.279Z,7.50
2018-05-07T22:38:23.452Z,7.20
2018-05-07T22:40:51.620Z,9.03
2018-05-07T22:43:19.809Z,8.50
2018-05-07T22:45:47.985Z,7.83
2018-05-07T22:48:16.156Z,7.90
2018-05-07T22:50:44.333Z,6.73
2018-05-07T22:53:12.506Z,7.40
2018-05-07T22:55:40.679Z,7.03
2018-05-07T22:58:08.847Z,6.90
2018-05-07T23:00:37.037Z,6.90
2018-05-07T23:03:05.172Z,6.53
2018-05-07T23:05:34.074Z,7.43
2018-05-07T23:08:02.212Z,6.97
2018-05-07T23:10:30.356Z,8.10
2018-05-07T23:12:58.493Z,7.37
2018-05-07T23:15:26.629Z,7.53
2018-05-07T23:17:54.771Z,8.40
2018-05-07T23:20:22.919Z,7.53
2018-05-07T23:22:51.093Z,7.93
2018-05-07T23:25:19.237Z,8.17
2018-05-07T23:27:47.369Z,8.10
2018-05-07T23:30:15.519Z,7.73
2018-05-07T23:32:43.664Z,8.37
2018-05-07T23:35:12.568Z,8.17
2018-05-07T23:37:41.504Z,8.73
2018-05-07T23:40:09.668Z,7.80
2018-05-07T23:42:37.800Z,7.60
2018-05-07T23:45:06.709Z,7.97
2018-05-07T23:47:34.854Z,8.00
2018-05-07T23:50:03.769Z,7.80
2018-05-07T23:52:31.912Z,7.57
2018-05-07T23:55:00.056Z,7.40
2018-05-07T23:57:28.202Z,7.17
2018-05-07T23:59:56.344Z,7.10
